sensor_id;sensor_type;location;lat;lon;timestamp;pressure;altitude;pressure_sealevel;temperature;humidity
46886;BME280;32622;48.202;11.326;2023-07-08T00:01:32;1019.00;;;20.66;22.65
46886;BME280;32622;48.202;11.326;2023-07-08T00:03:34;1019.02;;;20.52;22.40
46886;BME280;32622;48.202;11.326;2023-07-08T00:05:36;1018.75;;;21.73;22.15
46886;BME280;32622;48.202;11.326;2023-07-08T00:07:39;1018.78;;;21.31;21.98
46886;BME280;32622;48.202;11.326;2023-07-08T00:09:41;1018.76;;;21.53;21.91
46886;BME280;32622;48.202;11.326;2023-07-08T00:11:43;1018.86;;;21.06;22.22
46886;BME280;32622;48.202;11.326;2023-07-08T00:13:53;1018.86;;;20.77;22.54
46886;BME280;32622;48.202;11.326;2023-07-08T00:15:55;1018.82;;;20.86;22.43
46886;BME280;32622;48.202;11.326;2023-07-08T00:17:57;1018.77;;;21.19;22.22
46886;BME280;32622;48.202;11.326;2023-07-08T00:19:59;1018.81;;;21.17;22.19
46886;BME280;32622;48.202;11.326;2023-07-08T00:22:01;1018.69;;;21.86;22.17
46886;BME280;32622;48.202;11.326;2023-07-08T00:24:04;1018.86;;;21.05;22.46
46886;BME280;32622;48.202;11.326;2023-07-08T00:26:11;1018.76;;;21.39;22.63
46886;BME280;32622;48.202;11.326;2023-07-08T00:28:16;1018.67;;;21.68;23.00
46886;BME280;32622;48.202;11.326;2023-07-08T00:30:23;1018.73;;;21.52;23.37
46886;BME280;32622;48.202;11.326;2023-07-08T00:32:26;1018.76;;;21.40;23.89
46886;BME280;32622;48.202;11.326;2023-07-08T00:34:28;1018.99;;;20.28;24.32
46886;BME280;32622;48.202;11.326;2023-07-08T00:36:30;1018.86;;;20.71;24.46
46886;BME280;32622;48.202;11.326;2023-07-08T00:38:32;1018.82;;;20.88;23.79
46886;BME280;32622;48.202;11.326;2023-07-08T00:40:34;1018.82;;;21.01;23.63
46886;BME280;32622;48.202;11.326;2023-07-08T00:42:37;1018.77;;;21.24;23.24
46886;BME280;32622;48.202;11.326;2023-07-08T00:44:40;1018.74;;;21.42;23.33
46886;BME280;32622;48.202;11.326;2023-07-08T00:46:50;1018.83;;;20.91;23.60
46886;BME280;32622;48.202;11.326;2023-07-08T00:49:03;1018.78;;;20.89;23.61
46886;BME280;32622;48.202;11.326;2023-07-08T00:51:12;1018.82;;;20.61;23.86
46886;BME280;32622;48.202;11.326;2023-07-08T00:53:32;1018.89;;;20.31;23.68
46886;BME280;32622;48.202;11.326;2023-07-08T00:55:34;1018.77;;;20.87;23.53
46886;BME280;32622;48.202;11.326;2023-07-08T00:57:40;1018.71;;;21.09;23.32
46886;BME280;32622;48.202;11.326;2023-07-08T00:59:47;1018.78;;;20.66;23.40
46886;BME280;32622;48.202;11.326;2023-07-08T01:01:53;1018.72;;;20.78;23.23
46886;BME280;32622;48.202;11.326;2023-07-08T01:03:59;1018.82;;;20.37;23.75
46886;BME280;32622;48.202;11.326;2023-07-08T01:06:03;1018.71;;;20.73;23.44
46886;BME280;32622;48.202;11.326;2023-07-08T01:08:06;1018.69;;;20.81;23.42
46886;BME280;32622;48.202;11.326;2023-07-08T01:10:10;1018.70;;;20.63;23.62
46886;BME280;32622;48.202;11.326;2023-07-08T01:12:17;1018.90;;;19.95;23.91
46886;BME280;32622;48.202;11.326;2023-07-08T01:14:22;1019.03;;;19.65;24.42
46886;BME280;32622;48.202;11.326;2023-07-08T01:16:26;1018.91;;;20.31;24.00
46886;BME280;32622;48.202;11.326;2023-07-08T01:18:28;1018.92;;;20.47;23.51
46886;BME280;32622;48.202;11.326;2023-07-08T01:20:32;1018.85;;;20.80;23.49
46886;BME280;32622;48.202;11.326;2023-07-08T01:22:35;1018.94;;;20.64;23.96
46886;BME280;32622;48.202;11.326;2023-07-08T01:24:40;1018.89;;;20.78;23.95
46886;BME280;32622;48.202;11.326;2023-07-08T01:26:44;1018.90;;;20.94;24.27
46886;BME280;32622;48.202;11.326;2023-07-08T01:28:47;1019.02;;;20.28;24.91
46886;BME280;32622;48.202;11.326;2023-07-08T01:30:49;1019.00;;;20.48;24.80
46886;BME280;32622;48.202;11.326;2023-07-08T01:32:55;1018.96;;;20.66;24.58
46886;BME280;32622;48.202;11.326;2023-07-08T01:35:01;1019.08;;;20.24;24.65
46886;BME280;32622;48.202;11.326;2023-07-08T01:37:05;1019.02;;;20.43;24.51
46886;BME280;32622;48.202;11.326;2023-07-08T01:39:12;1018.90;;;21.01;24.29
46886;BME280;32622;48.202;11.326;2023-07-08T01:41:16;1018.93;;;20.77;24.47
46886;BME280;32622;48.202;11.326;2023-07-08T01:43:18;1019.08;;;20.12;24.64
46886;BME280;32622;48.202;11.326;2023-07-08T01:45:23;1019.13;;;19.87;24.81
46886;BME280;32622;48.202;11.326;2023-07-08T01:47:26;1019.13;;;19.73;24.87
46886;BME280;32622;48.202;11.326;2023-07-08T01:49:28;1019.02;;;20.16;24.45
46886;BME280;32622;48.202;11.326;2023-07-08T01:51:31;1019.10;;;19.75;24.74
46886;BME280;32622;48.202;11.326;2023-07-08T01:53:35;1018.99;;;20.21;24.40
46886;BME280;32622;48.202;11.326;2023-07-08T01:55:37;1019.01;;;20.07;24.54
46886;BME280;32622;48.202;11.326;2023-07-08T01:57:39;1019.10;;;19.48;24.96
46886;BME280;32622;48.202;11.326;2023-07-08T01:59:41;1018.99;;;19.84;24.72
46886;BME280;32622;48.202;11.326;2023-07-08T02:01:43;1019.13;;;19.08;25.42
46886;BME280;32622;48.202;11.326;2023-07-08T02:03:45;1019.04;;;19.42;25.13
46886;BME280;32622;48.202;11.326;2023-07-08T02:05:48;1019.11;;;19.00;25.67
46886;BME280;32622;48.202;11.326;2023-07-08T02:07:50;1019.22;;;18.42;25.91
46886;BME280;32622;48.202;11.326;2023-07-08T02:09:52;1019.38;;;17.85;26.66
46886;BME280;32622;48.202;11.326;2023-07-08T02:11:54;1019.46;;;17.46;27.20
46886;BME280;32622;48.202;11.326;2023-07-08T02:13:56;1019.37;;;17.92;27.06
46886;BME280;32622;48.202;11.326;2023-07-08T02:15:58;1019.45;;;17.64;27.85
46886;BME280;32622;48.202;11.326;2023-07-08T02:18:01;1019.35;;;18.07;27.46
46886;BME280;32622;48.202;11.326;2023-07-08T02:20:04;1019.58;;;16.72;28.94
46886;BME280;32622;48.202;11.326;2023-07-08T02:22:06;1019.31;;;18.04;27.57
46886;BME280;32622;48.202;11.326;2023-07-08T02:24:08;1019.18;;;18.67;27.43
46886;BME280;32622;48.202;11.326;2023-07-08T02:26:10;1019.24;;;18.36;27.48
46886;BME280;32622;48.202;11.326;2023-07-08T02:28:12;1019.28;;;17.97;27.69
46886;BME280;32622;48.202;11.326;2023-07-08T02:30:14;1019.10;;;18.52;26.78
46886;BME280;32622;48.202;11.326;2023-07-08T02:32:17;1019.36;;;17.47;27.78
46886;BME280;32622;48.202;11.326;2023-07-08T02:34:19;1019.63;;;16.20;29.66
46886;BME280;32622;48.202;11.326;2023-07-08T02:36:21;1019.58;;;16.36;29.80
46886;BME280;32622;48.202;11.326;2023-07-08T02:38:24;1019.65;;;16.16;29.50
46886;BME280;32622;48.202;11.326;2023-07-08T02:40:26;1019.47;;;17.04;28.72
46886;BME280;32622;48.202;11.326;2023-07-08T02:42:28;1019.70;;;16.13;29.14
46886;BME280;32622;48.202;11.326;2023-07-08T02:44:30;1019.65;;;16.49;29.69
46886;BME280;32622;48.202;11.326;2023-07-08T02:46:32;1019.63;;;16.48;29.26
46886;BME280;32622;48.202;11.326;2023-07-08T02:48:34;1019.74;;;15.99;29.31
46886;BME280;32622;48.202;11.326;2023-07-08T02:50:36;1019.66;;;16.45;29.52
46886;BME280;32622;48.202;11.326;2023-07-08T02:52:38;1019.57;;;16.92;29.14
46886;BME280;32622;48.202;11.326;2023-07-08T02:54:40;1019.55;;;16.88;28.81
46886;BME280;32622;48.202;11.326;2023-07-08T02:56:43;1019.47;;;17.18;28.23
46886;BME280;32622;48.202;11.326;2023-07-08T02:58:45;1019.58;;;16.50;29.13
46886;BME280;32622;48.202;11.326;2023-07-08T03:00:51;1020.01;;;14.70;31.19
46886;BME280;32622;48.202;11.326;2023-07-08T03:02:54;1020.05;;;14.44;32.18
46886;BME280;32622;48.202;11.326;2023-07-08T03:04:56;1020.17;;;13.82;32.54
46886;BME280;32622;48.202;11.326;2023-07-08T03:06:58;1020.07;;;14.38;32.57
46886;BME280;32622;48.202;11.326;2023-07-08T03:09:00;1019.98;;;14.89;31.56
46886;BME280;32622;48.202;11.326;2023-07-08T03:11:07;1020.07;;;14.43;32.47
46886;BME280;32622;48.202;11.326;2023-07-08T03:13:09;1020.17;;;14.02;33.02
46886;BME280;32622;48.202;11.326;2023-07-08T03:15:11;1019.93;;;15.03;32.07
46886;BME280;32622;48.202;11.326;2023-07-08T03:17:13;1020.08;;;14.23;32.90
46886;BME280;32622;48.202;11.326;2023-07-08T03:19:15;1019.87;;;15.37;31.35
46886;BME280;32622;48.202;11.326;2023-07-08T03:21:18;1020.02;;;14.66;32.42
46886;BME280;32622;48.202;11.326;2023-07-08T03:23:20;1020.04;;;14.41;32.80
46886;BME280;32622;48.202;11.326;2023-07-08T03:25:22;1020.18;;;13.88;33.37
46886;BME280;32622;48.202;11.326;2023-07-08T03:27:24;1020.29;;;13.39;33.91
46886;BME280;32622;48.202;11.326;2023-07-08T03:29:27;1020.34;;;13.32;34.74
46886;BME280;32622;48.202;11.326;2023-07-08T03:31:29;1019.87;;;15.08;32.30
46886;BME280;32622;48.202;11.326;2023-07-08T03:33:31;1019.94;;;14.65;33.36
46886;BME280;32622;48.202;11.326;2023-07-08T03:35:33;1019.90;;;14.92;32.13
46886;BME280;32622;48.202;11.326;2023-07-08T03:37:35;1019.76;;;15.51;31.58
46886;BME280;32622;48.202;11.326;2023-07-08T03:39:37;1019.70;;;15.96;30.77
46886;BME280;32622;48.202;11.326;2023-07-08T03:41:39;1019.56;;;16.86;29.85
46886;BME280;32622;48.202;11.326;2023-07-08T03:43:41;1019.58;;;17.07;29.45
46886;BME280;32622;48.202;11.326;2023-07-08T03:45:44;1019.37;;;17.99;29.07
46886;BME280;32622;48.202;11.326;2023-07-08T03:47:46;1019.42;;;18.00;28.32
46886;BME280;32622;48.202;11.326;2023-07-08T03:49:48;1019.42;;;18.09;27.92
46886;BME280;32622;48.202;11.326;2023-07-08T03:51:52;1019.43;;;18.16;28.14
46886;BME280;32622;48.202;11.326;2023-07-08T03:53:54;1019.40;;;18.51;27.86
46886;BME280;32622;48.202;11.326;2023-07-08T03:55:56;1019.37;;;18.52;27.89
46886;BME280;32622;48.202;11.326;2023-07-08T03:57:58;1019.38;;;18.29;27.84
46886;BME280;32622;48.202;11.326;2023-07-08T04:00:00;1019.45;;;17.94;27.53
46886;BME280;32622;48.202;11.326;2023-07-08T04:02:03;1019.58;;;16.94;28.70
46886;BME280;32622;48.202;11.326;2023-07-08T04:04:05;1019.38;;;17.74;28.25
46886;BME280;32622;48.202;11.326;2023-07-08T04:06:07;1019.55;;;17.06;28.88
46886;BME280;32622;48.202;11.326;2023-07-08T04:08:09;1019.56;;;17.13;28.92
46886;BME280;32622;48.202;11.326;2023-07-08T04:10:12;1019.36;;;18.40;28.25
46886;BME280;32622;48.202;11.326;2023-07-08T04:12:14;1019.42;;;18.24;27.73
46886;BME280;32622;48.202;11.326;2023-07-08T04:14:16;1019.38;;;18.54;27.49
46886;BME280;32622;48.202;11.326;2023-07-08T04:16:21;1019.42;;;18.65;27.54
46886;BME280;32622;48.202;11.326;2023-07-08T04:18:24;1019.43;;;18.56;27.71
46886;BME280;32622;48.202;11.326;2023-07-08T04:20:26;1019.52;;;18.12;27.56
46886;BME280;32622;48.202;11.326;2023-07-08T04:22:28;1019.34;;;18.89;27.05
46886;BME280;32622;48.202;11.326;2023-07-08T04:24:30;1019.29;;;19.32;26.75
46886;BME280;32622;48.202;11.326;2023-07-08T04:26:32;1019.35;;;19.34;26.91
46886;BME280;32622;48.202;11.326;2023-07-08T04:28:34;1019.42;;;19.29;27.05
46886;BME280;32622;48.202;11.326;2023-07-08T04:30:36;1019.53;;;19.08;26.71
46886;BME280;32622;48.202;11.326;2023-07-08T04:32:38;1019.37;;;19.70;26.36
46886;BME280;32622;48.202;11.326;2023-07-08T04:34:40;1019.46;;;19.42;26.87
46886;BME280;32622;48.202;11.326;2023-07-08T04:36:43;1019.48;;;19.58;26.96
46886;BME280;32622;48.202;11.326;2023-07-08T04:38:45;1019.52;;;19.56;27.10
46886;BME280;32622;48.202;11.326;2023-07-08T04:40:48;1019.41;;;20.10;26.80
46886;BME280;32622;48.202;11.326;2023-07-08T04:42:50;1019.43;;;20.13;26.43
46886;BME280;32622;48.202;11.326;2023-07-08T04:44:52;1019.56;;;19.80;26.68
46886;BME280;32622;48.202;11.326;2023-07-08T04:46:56;1019.58;;;19.97;26.45
46886;BME280;32622;48.202;11.326;2023-07-08T04:48:58;1019.69;;;19.57;26.47
46886;BME280;32622;48.202;11.326;2023-07-08T04:51:00;1019.58;;;20.01;26.36
46886;BME280;32622;48.202;11.326;2023-07-08T04:53:02;1019.66;;;19.61;26.72
46886;BME280;32622;48.202;11.326;2023-07-08T04:55:05;1019.68;;;19.72;26.27
46886;BME280;32622;48.202;11.326;2023-07-08T04:57:07;1019.77;;;19.70;26.54
46886;BME280;32622;48.202;11.326;2023-07-08T04:59:10;1019.79;;;19.89;26.31
46886;BME280;32622;48.202;11.326;2023-07-08T05:01:13;1019.80;;;20.09;26.19
46886;BME280;32622;48.202;11.326;2023-07-08T05:03:16;1019.83;;;20.11;26.21
46886;BME280;32622;48.202;11.326;2023-07-08T05:05:18;1019.79;;;20.02;26.54
46886;BME280;32622;48.202;11.326;2023-07-08T05:07:20;1019.82;;;19.74;26.67
46886;BME280;32622;48.202;11.326;2023-07-08T05:09:22;1019.83;;;19.48;26.88
46886;BME280;32622;48.202;11.326;2023-07-08T05:11:24;1019.77;;;19.79;26.43
46886;BME280;32622;48.202;11.326;2023-07-08T05:13:26;1019.80;;;19.71;26.22
46886;BME280;32622;48.202;11.326;2023-07-08T05:15:28;1019.70;;;19.94;26.05
46886;BME280;32622;48.202;11.326;2023-07-08T05:17:30;1019.88;;;19.18;26.45
46886;BME280;32622;48.202;11.326;2023-07-08T05:19:32;1019.68;;;19.94;26.44
46886;BME280;32622;48.202;11.326;2023-07-08T05:21:35;1019.78;;;19.38;26.64
46886;BME280;32622;48.202;11.326;2023-07-08T05:23:37;1019.63;;;20.04;26.31
46886;BME280;32622;48.202;11.326;2023-07-08T05:25:39;1019.56;;;20.38;26.37
46886;BME280;32622;48.202;11.326;2023-07-08T05:27:41;1019.59;;;20.21;26.13
46886;BME280;32622;48.202;11.326;2023-07-08T05:29:45;1019.65;;;20.13;26.15
46886;BME280;32622;48.202;11.326;2023-07-08T05:31:47;1019.66;;;20.03;26.36
46886;BME280;32622;48.202;11.326;2023-07-08T05:33:49;1019.57;;;20.34;26.26
46886;BME280;32622;48.202;11.326;2023-07-08T05:35:52;1019.64;;;19.35;26.85
46886;BME280;32622;48.202;11.326;2023-07-08T05:37:54;1019.30;;;20.57;25.96
46886;BME280;32622;48.202;11.326;2023-07-08T05:39:57;1019.32;;;20.37;25.82
46886;BME280;32622;48.202;11.326;2023-07-08T05:41:59;1019.27;;;20.66;25.48
46886;BME280;32622;48.202;11.326;2023-07-08T05:44:01;1019.30;;;20.35;25.84
46886;BME280;32622;48.202;11.326;2023-07-08T05:46:03;1019.45;;;19.66;26.43
46886;BME280;32622;48.202;11.326;2023-07-08T05:48:05;1019.37;;;19.92;26.49
46886;BME280;32622;48.202;11.326;2023-07-08T05:50:08;1019.23;;;20.80;25.30
46886;BME280;32622;48.202;11.326;2023-07-08T05:52:10;1019.51;;;19.47;26.86
46886;BME280;32622;48.202;11.326;2023-07-08T05:54:13;1019.38;;;20.13;25.48
46886;BME280;32622;48.202;11.326;2023-07-08T05:56:15;1019.20;;;21.15;25.01
46886;BME280;32622;48.202;11.326;2023-07-08T05:58:17;1019.12;;;21.32;24.86
46886;BME280;32622;48.202;11.326;2023-07-08T06:00:20;1019.28;;;20.48;25.23
46886;BME280;32622;48.202;11.326;2023-07-08T06:02:22;1019.43;;;19.80;25.57
46886;BME280;32622;48.202;11.326;2023-07-08T06:04:24;1019.62;;;18.95;26.90
46886;BME280;32622;48.202;11.326;2023-07-08T06:06:27;1019.57;;;19.22;26.14
46886;BME280;32622;48.202;11.326;2023-07-08T06:08:30;1019.93;;;17.90;28.04
46886;BME280;32622;48.202;11.326;2023-07-08T06:10:32;1019.75;;;18.65;27.34
46886;BME280;32622;48.202;11.326;2023-07-08T06:12:34;1019.49;;;19.73;26.55
46886;BME280;32622;48.202;11.326;2023-07-08T06:14:36;1019.41;;;20.13;26.07
46886;BME280;32622;48.202;11.326;2023-07-08T06:16:38;1019.31;;;20.33;26.07
46886;BME280;32622;48.202;11.326;2023-07-08T06:18:40;1019.05;;;21.51;25.77
46886;BME280;32622;48.202;11.326;2023-07-08T06:20:51;1019.18;;;20.77;25.76
46886;BME280;32622;48.202;11.326;2023-07-08T06:22:53;1019.11;;;21.01;25.66
46886;BME280;32622;48.202;11.326;2023-07-08T06:24:55;1019.01;;;21.48;25.19
46886;BME280;32622;48.202;11.326;2023-07-08T06:26:57;1019.06;;;21.31;25.20
46886;BME280;32622;48.202;11.326;2023-07-08T06:28:59;1018.94;;;21.71;25.23
46886;BME280;32622;48.202;11.326;2023-07-08T06:31:01;1018.95;;;21.62;24.75
46886;BME280;32622;48.202;11.326;2023-07-08T06:33:03;1018.91;;;21.86;24.53
46886;BME280;32622;48.202;11.326;2023-07-08T06:35:06;1019.05;;;21.45;24.76
46886;BME280;32622;48.202;11.326;2023-07-08T06:37:08;1019.32;;;20.38;25.62
46886;BME280;32622;48.202;11.326;2023-07-08T06:39:10;1019.08;;;21.55;25.29
46886;BME280;32622;48.202;11.326;2023-07-08T06:41:12;1019.11;;;21.59;25.02
46886;BME280;32622;48.202;11.326;2023-07-08T06:43:14;1019.22;;;21.50;25.08
46886;BME280;32622;48.202;11.326;2023-07-08T06:45:16;1019.41;;;21.10;24.88
46886;BME280;32622;48.202;11.326;2023-07-08T06:47:19;1019.21;;;22.44;24.14
46886;BME280;32622;48.202;11.326;2023-07-08T06:49:22;1019.20;;;22.77;23.77
46886;BME280;32622;48.202;11.326;2023-07-08T06:51:24;1019.13;;;23.05;23.53
46886;BME280;32622;48.202;11.326;2023-07-08T06:53:26;1019.18;;;22.83;23.55
46886;BME280;32622;48.202;11.326;2023-07-08T06:55:28;1019.17;;;22.94;23.45
46886;BME280;32622;48.202;11.326;2023-07-08T06:57:30;1018.94;;;23.83;23.12
46886;BME280;32622;48.202;11.326;2023-07-08T06:59:33;1018.95;;;23.70;22.75
46886;BME280;32622;48.202;11.326;2023-07-08T07:01:35;1018.93;;;23.78;22.71
46886;BME280;32622;48.202;11.326;2023-07-08T07:03:38;1018.91;;;23.65;22.62
46886;BME280;32622;48.202;11.326;2023-07-08T07:05:40;1018.80;;;24.04;22.33
46886;BME280;32622;48.202;11.326;2023-07-08T07:07:42;1018.67;;;24.61;21.77
46886;BME280;32622;48.202;11.326;2023-07-08T07:09:44;1018.57;;;25.41;21.95
46886;BME280;32622;48.202;11.326;2023-07-08T07:11:46;1018.78;;;24.48;22.07
46886;BME280;32622;48.202;11.326;2023-07-08T07:13:48;1018.70;;;24.86;21.58
46886;BME280;32622;48.202;11.326;2023-07-08T07:15:50;1018.69;;;24.74;21.37
46886;BME280;32622;48.202;11.326;2023-07-08T07:17:52;1018.82;;;23.92;22.05
46886;BME280;32622;48.202;11.326;2023-07-08T07:19:55;1018.63;;;24.59;22.24
46886;BME280;32622;48.202;11.326;2023-07-08T07:21:57;1018.72;;;24.31;21.87
46886;BME280;32622;48.202;11.326;2023-07-08T07:23:59;1018.76;;;24.29;21.42
46886;BME280;32622;48.202;11.326;2023-07-08T07:26:01;1019.17;;;23.01;22.75
46886;BME280;32622;48.202;11.326;2023-07-08T07:28:03;1018.87;;;24.66;22.20
46886;BME280;32622;48.202;11.326;2023-07-08T07:30:07;1018.97;;;24.67;21.68
46886;BME280;32622;48.202;11.326;2023-07-08T07:32:09;1018.99;;;24.52;21.42
46886;BME280;32622;48.202;11.326;2023-07-08T07:34:11;1018.75;;;25.66;21.26
46886;BME280;32622;48.202;11.326;2023-07-08T07:36:13;1018.86;;;25.19;21.15
46886;BME280;32622;48.202;11.326;2023-07-08T07:38:16;1018.95;;;25.27;21.23
46886;BME280;32622;48.202;11.326;2023-07-08T07:40:18;1018.96;;;25.77;21.13
46886;BME280;32622;48.202;11.326;2023-07-08T07:42:20;1018.98;;;26.01;21.26
46886;BME280;32622;48.202;11.326;2023-07-08T07:44:22;1018.96;;;25.86;20.90
46886;BME280;32622;48.202;11.326;2023-07-08T07:46:25;1019.00;;;25.58;21.28
46886;BME280;32622;48.202;11.326;2023-07-08T07:48:27;1018.84;;;26.76;20.60
46886;BME280;32622;48.202;11.326;2023-07-08T07:50:30;1018.96;;;26.29;20.79
46886;BME280;32622;48.202;11.326;2023-07-08T07:52:32;1019.09;;;25.53;20.68
46886;BME280;32622;48.202;11.326;2023-07-08T07:54:34;1018.93;;;26.31;20.45
46886;BME280;32622;48.202;11.326;2023-07-08T07:56:36;1018.93;;;26.74;20.48
46886;BME280;32622;48.202;11.326;2023-07-08T07:58:38;1018.99;;;26.54;20.00
46886;BME280;32622;48.202;11.326;2023-07-08T08:00:40;1018.99;;;26.61;20.20
46886;BME280;32622;48.202;11.326;2023-07-08T08:02:43;1018.92;;;26.74;20.03
46886;BME280;32622;48.202;11.326;2023-07-08T08:04:45;1019.12;;;25.94;20.15
46886;BME280;32622;48.202;11.326;2023-07-08T08:06:47;1019.12;;;26.19;20.17
46886;BME280;32622;48.202;11.326;2023-07-08T08:08:49;1019.19;;;26.08;20.19
46886;BME280;32622;48.202;11.326;2023-07-08T08:10:52;1019.20;;;26.26;20.10
46886;BME280;32622;48.202;11.326;2023-07-08T08:12:54;1019.17;;;26.48;19.79
46886;BME280;32622;48.202;11.326;2023-07-08T08:14:56;1019.27;;;26.36;19.66
46886;BME280;32622;48.202;11.326;2023-07-08T08:16:58;1019.17;;;26.71;19.66
46886;BME280;32622;48.202;11.326;2023-07-08T08:19:01;1019.03;;;27.11;19.25
46886;BME280;32622;48.202;11.326;2023-07-08T08:21:03;1019.21;;;26.25;19.01
46886;BME280;32622;48.202;11.326;2023-07-08T08:23:05;1019.14;;;26.49;19.14
46886;BME280;32622;48.202;11.326;2023-07-08T08:25:07;1019.05;;;26.65;19.22
46886;BME280;32622;48.202;11.326;2023-07-08T08:27:10;1019.21;;;26.03;19.90
46886;BME280;32622;48.202;11.326;2023-07-08T08:29:12;1019.26;;;25.73;19.91
46886;BME280;32622;48.202;11.326;2023-07-08T08:31:14;1019.02;;;26.96;19.51
46886;BME280;32622;48.202;11.326;2023-07-08T08:33:16;1019.05;;;26.84;19.83
46886;BME280;32622;48.202;11.326;2023-07-08T08:35:18;1019.09;;;26.76;20.09
46886;BME280;32622;48.202;11.326;2023-07-08T08:37:20;1018.97;;;27.39;19.58
46886;BME280;32622;48.202;11.326;2023-07-08T08:39:22;1019.16;;;26.69;19.99
46886;BME280;32622;48.202;11.326;2023-07-08T08:41:30;1019.05;;;27.03;19.41
46886;BME280;32622;48.202;11.326;2023-07-08T08:43:36;1019.09;;;26.82;20.00
46886;BME280;32622;48.202;11.326;2023-07-08T08:45:50;1019.35;;;25.53;20.98
46886;BME280;32622;48.202;11.326;2023-07-08T08:47:59;1019.29;;;25.95;21.36
46886;BME280;32622;48.202;11.326;2023-07-08T08:50:13;1019.19;;;26.65;20.47
46886;BME280;32622;48.202;11.326;2023-07-08T08:52:22;1019.17;;;26.47;20.34
46886;BME280;32622;48.202;11.326;2023-07-08T08:54:24;1019.21;;;26.55;20.19
46886;BME280;32622;48.202;11.326;2023-07-08T08:56:29;1019.17;;;26.91;20.20
46886;BME280;32622;48.202;11.326;2023-07-08T08:58:36;1019.17;;;26.70;20.12
46886;BME280;32622;48.202;11.326;2023-07-08T09:00:51;1019.44;;;25.38;21.15
46886;BME280;32622;48.202;11.326;2023-07-08T09:03:01;1019.30;;;26.59;20.38
46886;BME280;32622;48.202;11.326;2023-07-08T09:05:08;1019.19;;;26.76;20.12
46886;BME280;32622;48.202;11.326;2023-07-08T09:07:16;1019.21;;;26.96;19.71
46886;BME280;32622;48.202;11.326;2023-07-08T09:09:27;1019.20;;;27.24;20.02
46886;BME280;32622;48.202;11.326;2023-07-08T09:11:41;1019.17;;;27.43;19.82
46886;BME280;32622;48.202;11.326;2023-07-08T09:13:45;1019.20;;;26.90;19.96
46886;BME280;32622;48.202;11.326;2023-07-08T09:15:49;1019.23;;;26.76;20.09
46886;BME280;32622;48.202;11.326;2023-07-08T09:18:05;1019.30;;;26.79;20.07
46886;BME280;32622;48.202;11.326;2023-07-08T09:20:21;1019.19;;;27.44;20.03
46886;BME280;32622;48.202;11.326;2023-07-08T09:22:28;1019.14;;;27.44;19.73
46886;BME280;32622;48.202;11.326;2023-07-08T09:24:39;1019.11;;;27.68;19.52
46886;BME280;32622;48.202;11.326;2023-07-08T09:26:43;1019.08;;;27.83;18.68
46886;BME280;32622;48.202;11.326;2023-07-08T09:28:47;1019.05;;;27.76;19.04
46886;BME280;32622;48.202;11.326;2023-07-08T09:30:52;1019.04;;;27.78;19.23
46886;BME280;32622;48.202;11.326;2023-07-08T09:32:55;1018.90;;;28.29;19.01
46886;BME280;32622;48.202;11.326;2023-07-08T09:35:04;1018.93;;;28.06;18.81
46886;BME280;32622;48.202;11.326;2023-07-08T09:37:23;1018.92;;;28.12;19.22
46886;BME280;32622;48.202;11.326;2023-07-08T09:39:27;1018.82;;;28.70;18.77
46886;BME280;32622;48.202;11.326;2023-07-08T09:41:31;1018.92;;;28.17;18.21
46886;BME280;32622;48.202;11.326;2023-07-08T09:43:36;1018.88;;;28.40;18.31
46886;BME280;32622;48.202;11.326;2023-07-08T09:45:42;1018.94;;;27.79;18.66
46886;BME280;32622;48.202;11.326;2023-07-08T09:47:46;1018.85;;;28.52;18.49
46886;BME280;32622;48.202;11.326;2023-07-08T09:49:49;1019.06;;;27.36;19.45
46886;BME280;32622;48.202;11.326;2023-07-08T09:51:53;1018.91;;;28.22;19.35
46886;BME280;32622;48.202;11.326;2023-07-08T09:53:55;1018.81;;;28.56;18.62
46886;BME280;32622;48.202;11.326;2023-07-08T09:55:59;1018.82;;;28.54;18.54
46886;BME280;32622;48.202;11.326;2023-07-08T09:58:04;1018.86;;;28.48;18.92
46886;BME280;32622;48.202;11.326;2023-07-08T10:00:10;1018.78;;;29.10;18.06
46886;BME280;32622;48.202;11.326;2023-07-08T10:02:27;1018.78;;;29.07;17.52
46886;BME280;32622;48.202;11.326;2023-07-08T10:04:30;1018.81;;;28.81;17.55
46886;BME280;32622;48.202;11.326;2023-07-08T10:06:34;1018.49;;;30.16;17.51
46886;BME280;32622;48.202;11.326;2023-07-08T10:08:40;1018.54;;;29.82;16.96
46886;BME280;32622;48.202;11.326;2023-07-08T10:10:43;1018.42;;;30.54;16.52
46886;BME280;32622;48.202;11.326;2023-07-08T10:12:55;1018.63;;;29.50;17.34
46886;BME280;32622;48.202;11.326;2023-07-08T10:15:00;1018.51;;;30.13;16.76
46886;BME280;32622;48.202;11.326;2023-07-08T10:17:03;1018.53;;;30.26;16.67
46886;BME280;32622;48.202;11.326;2023-07-08T10:19:13;1018.54;;;30.12;16.66
46886;BME280;32622;48.202;11.326;2023-07-08T10:21:25;1018.76;;;29.33;17.43
46886;BME280;32622;48.202;11.326;2023-07-08T10:23:41;1018.52;;;30.35;17.06
46886;BME280;32622;48.202;11.326;2023-07-08T10:25:51;1018.46;;;30.59;16.63
46886;BME280;32622;48.202;11.326;2023-07-08T10:28:03;1018.50;;;30.57;16.29
46886;BME280;32622;48.202;11.326;2023-07-08T10:30:19;1018.33;;;31.34;17.02
46886;BME280;32622;48.202;11.326;2023-07-08T10:32:33;1018.38;;;31.00;16.26
46886;BME280;32622;48.202;11.326;2023-07-08T10:34:44;1018.31;;;31.21;15.82
46886;BME280;32622;48.202;11.326;2023-07-08T10:36:51;1018.27;;;31.18;16.06
46886;BME280;32622;48.202;11.326;2023-07-08T10:39:09;1018.41;;;30.70;16.52
46886;BME280;32622;48.202;11.326;2023-07-08T10:41:21;1018.47;;;30.15;16.45
46886;BME280;32622;48.202;11.326;2023-07-08T10:43:38;1018.36;;;30.65;16.11
46886;BME280;32622;48.202;11.326;2023-07-08T10:45:51;1018.42;;;30.34;15.96
46886;BME280;32622;48.202;11.326;2023-07-08T10:48:08;1018.44;;;30.46;16.42
46886;BME280;32622;48.202;11.326;2023-07-08T10:50:28;1018.53;;;29.93;16.72
46886;BME280;32622;48.202;11.326;2023-07-08T10:52:46;1018.39;;;30.53;16.58
46886;BME280;32622;48.202;11.326;2023-07-08T10:55:03;1018.43;;;30.07;16.72
46886;BME280;32622;48.202;11.326;2023-07-08T10:57:18;1018.36;;;30.52;16.51